createdAt,value
2022-10-21T00:04:03.249Z,100425.00
2022-10-21T00:09:05.449Z,100425.97
2022-10-21T00:14:06.395Z,100437.19
2022-10-21T00:19:07.167Z,100446.72
2022-10-21T00:24:09.809Z,100432.09
2022-10-21T00:29:10.646Z,100433.88
2022-10-21T00:34:11.466Z,100423.47
2022-10-21T00:39:13.670Z,100406.03
2022-10-21T00:44:16.541Z,100401.94
2022-10-21T00:49:20.408Z,100392.16
2022-10-21T00:54:25.289Z,100406.84
2022-10-21T00:59:30.431Z,100399.09
2022-10-21T01:04:31.558Z,100381.72
2022-10-21T01:09:33.685Z,100341.84
2022-10-21T01:14:48.992Z,100323.84
2022-10-21T01:20:18.756Z,100328.44
2022-10-21T01:25:54.793Z,100322.28
2022-10-21T01:31:00.352Z,100312.69
2022-10-21T01:36:14.135Z,100296.16
2022-10-21T01:41:20.889Z,100286.50
2022-10-21T01:46:28.284Z,100283.03
2022-10-21T01:51:29.507Z,100269.97
2022-10-21T01:56:31.913Z,100244.78
2022-10-21T02:01:36.588Z,100243.97
2022-10-21T02:06:37.508Z,100250.88
2022-10-21T02:11:41.310Z,100252.63
2022-10-21T02:16:45.441Z,100249.06
2022-10-21T02:21:48.085Z,100233.63
2022-10-21T02:26:48.932Z,100232.84
2022-10-21T02:32:03.113Z,100224.00
2022-10-21T02:37:15.743Z,100241.38
2022-10-21T02:42:24.203Z,100266.97
2022-10-21T02:47:27.264Z,100241.19
2022-10-21T02:52:28.066Z,100242.06
2022-10-21T02:57:28.845Z,100242.91
2022-10-21T03:02:30.991Z,100261.91
2022-10-21T03:07:31.782Z,100241.78
2022-10-21T03:12:32.625Z,100239.97
2022-10-21T03:17:34.785Z,100222.66
2022-10-21T03:22:35.649Z,100220.06
2022-10-21T03:27:36.882Z,100235.56
2022-10-21T03:32:39.318Z,100242.41
2022-10-21T03:37:40.261Z,100222.53
2022-10-21T03:42:41.497Z,100210.53
2022-10-21T03:47:43.938Z,100202.78
2022-10-21T03:52:44.954Z,100208.19
2022-10-21T03:57:45.717Z,100219.91
2022-10-21T04:02:48.065Z,100218.97
2022-10-21T04:07:50.778Z,100188.72
2022-10-21T04:12:53.883Z,100197.44
2022-10-21T04:17:56.061Z,100207.22
2022-10-21T04:22:56.885Z,100202.16
2022-10-21T04:27:57.633Z,100202.25
2022-10-21T04:32:59.749Z,100165.81
2022-10-21T04:38:01.149Z,100172.53
2022-10-21T04:43:02.109Z,100166.34
2022-10-21T04:48:04.376Z,100165.56
2022-10-21T04:53:05.149Z,100168.16
2022-10-21T04:58:05.933Z,100154.47
2022-10-21T05:03:08.055Z,100155.34
2022-10-21T05:08:11.550Z,100150.03
2022-10-21T05:13:12.910Z,100144.81
2022-10-21T05:18:15.051Z,100132.78
2022-10-21T05:23:15.867Z,100144.09
2022-10-21T05:28:16.647Z,100123.44
2022-10-21T05:33:18.784Z,100113.16
2022-10-21T05:38:19.552Z,100113.94
2022-10-21T05:43:20.375Z,100113.97
2022-10-21T05:48:22.690Z,100105.88
2022-10-21T05:53:24.781Z,100124.31
2022-10-21T05:58:26.300Z,100128.66
2022-10-21T06:03:30.879Z,100108.69
2022-10-21T06:08:34.889Z,100116.34
2022-10-21T06:13:36.343Z,100127.47
2022-10-21T06:18:38.968Z,100110.94
2022-10-21T06:23:41.907Z,100123.03
2022-10-21T06:28:44.374Z,100125.53
2022-10-21T06:33:46.631Z,100116.84
2022-10-21T06:38:47.440Z,100128.81
2022-10-21T06:43:48.250Z,100126.09
2022-10-21T06:48:50.449Z,100136.28
2022-10-21T06:53:55.022Z,100148.84
2022-10-21T06:58:58.801Z,100145.41
2022-10-21T07:04:01.386Z,100139.69
2022-10-21T07:09:02.266Z,100150.69
2022-10-21T07:14:03.145Z,100149.16
2022-10-21T07:19:06.007Z,100150.56
2022-10-21T07:24:07.045Z,100129.78
2022-10-21T07:29:07.913Z,100129.28
2022-10-21T07:34:13.400Z,100127.81
2022-10-21T07:39:16.022Z,100133.78
2022-10-21T07:44:17.787Z,100122.50
2022-10-21T07:49:21.377Z,100116.28
2022-10-21T07:54:22.492Z,100115.44
2022-10-21T07:59:24.100Z,100115.22
2022-10-21T08:04:29.835Z,100105.47
2022-10-21T08:09:36.673Z,100099.00
2022-10-21T08:14:37.540Z,100109.81
2022-10-21T08:19:39.697Z,100107.28
2022-10-21T08:24:42.398Z,100097.97
2022-10-21T08:29:43.579Z,100094.16
2022-10-21T08:34:45.707Z,100089.56
2022-10-21T08:39:46.497Z,100078.81
2022-10-21T08:44:55.111Z,100084.34
2022-10-21T08:50:01.696Z,100077.75
2022-10-21T08:55:04.917Z,100071.06
2022-10-21T09:00:15.168Z,100055.81
2022-10-21T09:05:38.838Z,100048.47
2022-10-21T09:10:53.997Z,100040.44
2022-10-21T09:16:05.809Z,100035.88
2022-10-21T09:21:14.185Z,100036.97
2022-10-21T09:26:30.297Z,100047.19
2022-10-21T09:31:31.510Z,100036.13
2022-10-21T09:36:37.856Z,100020.41
2022-10-21T09:41:42.721Z,100020.69
2022-10-21T09:46:46.134Z,100006.41
2022-10-21T09:51:49.862Z,100010.94
2022-10-21T09:56:57.039Z,100014.38
2022-10-21T10:01:58.489Z,100011.69
2022-10-21T10:07:02.549Z,100020.06
2022-10-21T10:12:06.010Z,100017.06
2022-10-21T10:17:29.070Z,100015.00
2022-10-21T10:22:31.397Z,100014.25
2022-10-21T10:27:32.175Z,99999.63
2022-10-21T10:32:36.157Z,99990.56
2022-10-21T10:37:39.242Z,100002.94
2022-10-21T10:42:46.955Z,99995.97
2022-10-21T10:47:49.743Z,99993.38
2022-10-21T10:53:25.246Z,99990.00
2022-10-21T10:58:29.296Z,99979.34
2022-10-21T11:03:41.117Z,99974.09
2022-10-21T11:08:49.029Z,99987.75
2022-10-21T11:13:49.925Z,99980.31
2022-10-21T11:18:58.957Z,99986.44
2022-10-21T11:24:27.978Z,99973.41
2022-10-21T11:29:40.781Z,99967.84
2022-10-21T11:34:51.618Z,99952.28
2022-10-21T11:39:59.107Z,99953.81
2022-10-21T11:45:16.428Z,99953.22
2022-10-21T11:50:26.297Z,99950.81
2022-10-21T11:55:39.320Z,99946.09
2022-10-21T12:00:50.242Z,99952.59
2022-10-21T12:06:01.144Z,99940.31
2022-10-21T12:11:09.786Z,99943.69
2022-10-21T12:16:14.039Z,99952.00
2022-10-21T12:21:18.768Z,99974.91
2022-10-21T12:26:25.720Z,99972.31
2022-10-21T12:31:38.430Z,99972.22
2022-10-21T12:36:45.224Z,99972.59
2022-10-21T12:41:48.222Z,99968.81
2022-10-21T12:46:52.398Z,99970.22
2022-10-21T12:51:58.455Z,99989.63
2022-10-21T12:57:03.635Z,99992.47
2022-10-21T13:02:21.736Z,99985.22
2022-10-21T13:07:37.774Z,100005.38
2022-10-21T13:12:40.023Z,100007.25
2022-10-21T13:17:52.839Z,100019.38
2022-10-21T13:23:01.875Z,100017.44
2022-10-21T13:28:19.016Z,100013.78
2022-10-21T13:33:22.644Z,100008.94
2022-10-21T13:38:25.633Z,100013.00
2022-10-21T13:43:30.245Z,100018.34
2022-10-21T13:48:31.634Z,100010.06
2022-10-21T13:53:36.475Z,100026.63
2022-10-21T13:58:40.313Z,100018.19
2022-10-21T14:03:42.360Z,100021.78
2022-10-21T14:08:45.211Z,100009.03
2022-10-21T14:13:49.237Z,100007.25
2022-10-21T14:18:50.540Z,100008.97
2022-10-21T14:23:52.330Z,100005.34
2022-10-21T14:28:55.127Z,99988.38
2022-10-21T14:33:56.049Z,100000.81
2022-10-21T14:39:00.499Z,99989.47
2022-10-21T14:44:09.606Z,100014.63
2022-10-21T14:49:23.145Z,100018.75
2022-10-21T14:54:31.426Z,100009.94
2022-10-21T14:59:40.410Z,100018.69
2022-10-21T15:04:44.630Z,100016.75
2022-10-21T15:10:15.838Z,100045.72
2022-10-21T15:15:53.976Z,100057.59
2022-10-21T15:20:58.239Z,100066.97
2022-10-21T15:26:03.505Z,100067.25
2022-10-21T15:31:09.250Z,100021.31
2022-10-21T15:36:11.685Z,100023.88
2022-10-21T15:41:14.952Z,100015.28
2022-10-21T15:46:17.105Z,100008.53
2022-10-21T15:51:17.900Z,100012.84
2022-10-21T15:56:20.839Z,99995.47
2022-10-21T16:01:23.032Z,100001.81
2022-10-21T16:06:24.025Z,100005.09
2022-10-21T16:11:34.809Z,100018.16
2022-10-21T16:16:46.869Z,100024.34
2022-10-21T16:21:47.675Z,100056.63
2022-10-21T16:26:50.104Z,100041.69
2022-10-21T16:31:52.565Z,100068.78
2022-10-21T16:36:53.355Z,100040.25
2022-10-21T16:41:54.176Z,100023.09
2022-10-21T16:46:56.616Z,100030.13
2022-10-21T16:51:57.756Z,100039.50
2022-10-21T16:56:59.583Z,100049.81
2022-10-21T17:02:02.709Z,100046.41
2022-10-21T17:07:03.706Z,100046.38
2022-10-21T17:12:05.373Z,100036.13
2022-10-21T17:17:07.530Z,100036.13
2022-10-21T17:22:08.398Z,100032.69
2022-10-21T17:27:09.205Z,100028.19
2022-10-21T17:32:13.423Z,100029.03
2022-10-21T17:37:14.207Z,100040.34
2022-10-21T17:42:17.085Z,100037.00
2022-10-21T17:47:19.201Z,100037.16
2022-10-21T17:52:19.973Z,100046.66
2022-10-21T17:57:20.759Z,100044.94
2022-10-21T18:02:23.127Z,100046.56
2022-10-21T18:07:24.529Z,100028.28
2022-10-21T18:12:26.045Z,100020.25
2022-10-21T18:17:28.250Z,100023.59
2022-10-21T18:22:29.089Z,100013.22
2022-10-21T18:27:29.891Z,100012.28
2022-10-21T18:32:32.237Z,100006.00
2022-10-21T18:37:34.025Z,99995.53
2022-10-21T18:42:34.806Z,99995.88
2022-10-21T18:47:37.326Z,100005.56
2022-10-21T18:52:38.292Z,100000.16
2022-10-21T18:57:39.578Z,99990.69
2022-10-21T19:02:41.885Z,99985.50
2022-10-21T19:07:42.920Z,99980.22
2022-10-21T19:12:44.383Z,99980.19
2022-10-21T19:17:48.188Z,99979.31
2022-10-21T19:22:50.481Z,99976.59
2022-10-21T19:27:51.469Z,99987.78
2022-10-21T19:32:53.628Z,99989.47
2022-10-21T19:37:59.047Z,99992.16
2022-10-21T19:43:02.736Z,99990.47
2022-10-21T19:48:05.181Z,99997.34
2022-10-21T19:53:05.926Z,100000.88
2022-10-21T19:58:06.780Z,99995.66
2022-10-21T20:03:09.099Z,99997.28
2022-10-21T20:08:11.230Z,99994.53
2022-10-21T20:13:12.042Z,100007.66
2022-10-21T20:18:14.721Z,100016.34
2022-10-21T20:23:15.879Z,100006.53
2022-10-21T20:28:18.762Z,100013.53
2022-10-21T20:33:21.045Z,100013.41
2022-10-21T20:38:21.983Z,100012.69
2022-10-21T20:43:22.966Z,100014.25
2022-10-21T20:48:25.226Z,100008.09
2022-10-21T20:53:31.018Z,99998.25
2022-10-21T20:58:35.337Z,100004.38
2022-10-21T21:03:39.179Z,100010.47
2022-10-21T21:08:49.068Z,100009.59
2022-10-21T21:13:59.742Z,100014.47
2022-10-21T21:19:03.908Z,100022.47
2022-10-21T21:24:05.332Z,100026.88
2022-10-21T21:29:07.884Z,100011.03
2022-10-21T21:34:11.418Z,99998.88
2022-10-21T21:44:19.247Z,100020.78
2022-10-21T21:49:21.474Z,100027.03
2022-10-21T21:54:22.348Z,100035.59
2022-10-21T21:59:24.011Z,100042.44
2022-10-21T22:04:26.165Z,100044.91
2022-10-21T22:09:26.960Z,100025.81
2022-10-21T22:14:27.759Z,100011.97
2022-10-21T22:19:30.110Z,100006.94
2022-10-21T22:29:38.633Z,100013.81
2022-10-21T22:34:41.087Z,100024.28
2022-10-21T22:39:41.901Z,100017.22
2022-10-21T22:44:42.739Z,100014.44
2022-10-21T22:49:44.884Z,100001.16
2022-10-21T22:54:49.506Z,100005.56
2022-10-21T22:59:53.487Z,99994.38
2022-10-21T23:04:55.852Z,99988.13
2022-10-21T23:09:56.854Z,99994.22
2022-10-21T23:14:57.732Z,99983.78
2022-10-21T23:20:00.003Z,99963.81
2022-10-21T23:25:00.789Z,99968.88
2022-10-21T23:30:01.568Z,99969.63
2022-10-21T23:35:03.917Z,99951.63
2022-10-21T23:40:05.225Z,99962.88
2022-10-21T23:45:06.969Z,99984.44
2022-10-21T23:50:10.810Z,99989.63
2022-10-21T23:55:11.798Z,100012.88
